Time;durP1;ratioP1;P1;durP2;ratioP2;P2;SDS_P1;SDS_P2;PMS_P1;PMS_P2;Temp;Humidity;BMP_temperature;BMP_pressure;BME280_temperature;BME280_humidity;BME280_pressure;Samples;Min_cycle;Max_cycle;Signal;HPM_P1;HPM_P2
2023/01/18 00:00:29;;;;;;;18.80;14.73;;;0.10;99.90;;;;;;2107544;28;20024;-71
2023/01/18 00:01:30;;;;;;;21.13;15.48;;;0.00;99.90;;;;;;2108702;28;20076;-71
2023/01/18 00:02:31;;;;;;;24.10;17.35;;;0.00;99.90;;;;;;2106521;28;20123;-71
2023/01/18 00:03:32;;;;;;;19.00;15.25;;;0.00;99.90;;;;;;2107166;28;20032;-71
2023/01/18 00:04:33;;;;;;;23.70;15.85;;;0.00;99.90;;;;;;2107938;28;20028;-71
2023/01/18 00:05:39;;;;;;;22.02;15.25;;;0.00;99.90;;;;;;2105616;28;20445;-71
2023/01/18 00:06:40;;;;;;;20.60;15.45;;;0.00;99.90;;;;;;2105143;28;20024;-71
2023/01/18 00:07:41;;;;;;;19.70;15.93;;;0.00;99.90;;;;;;2110553;28;20066;-71
2023/01/18 00:08:41;;;;;;;21.85;15.70;;;0.00;99.90;;;;;;2109373;28;20031;-71
2023/01/18 00:09:42;;;;;;;24.55;17.20;;;0.00;99.90;;;;;;2107537;28;20664;-71
2023/01/18 00:10:43;;;;;;;25.35;15.40;;;0.00;99.90;;;;;;2108398;28;20026;-71
2023/01/18 00:11:43;;;;;;;20.00;16.00;;;0.00;99.90;;;;;;2108389;28;20059;-71
2023/01/18 00:12:44;;;;;;;18.13;14.38;;;0.00;99.90;;;;;;2108583;28;20020;-71
2023/01/18 00:13:45;;;;;;;17.52;14.50;;;-0.10;99.90;;;;;;2109223;28;20031;-71
2023/01/18 00:14:46;;;;;;;24.90;17.08;;;-0.10;99.90;;;;;;2109431;28;20043;-71
2023/01/18 00:15:46;;;;;;;19.20;14.43;;;-0.10;99.90;;;;;;2108146;28;20032;-71
2023/01/18 00:16:47;;;;;;;22.75;17.23;;;-0.10;99.90;;;;;;2108080;28;20016;-71
2023/01/18 00:17:50;;;;;;;19.15;15.98;;;-0.10;99.90;;;;;;2107942;28;20028;-71
2023/01/18 00:18:56;;;;;;;22.85;15.93;;;-0.10;99.90;;;;;;2108704;28;20076;-71
2023/01/18 00:19:56;;;;;;;19.85;14.82;;;-0.10;99.90;;;;;;2107037;28;20012;-71
2023/01/18 00:21:00;;;;;;;23.42;16.48;;;-0.10;99.90;;;;;;2106870;28;20108;-71
2023/01/18 00:22:01;;;;;;;19.48;15.43;;;-0.10;99.90;;;;;;2108692;28;20027;-71
2023/01/18 00:23:01;;;;;;;22.58;15.48;;;-0.10;99.90;;;;;;2107303;28;20035;-71
2023/01/18 00:24:02;;;;;;;18.23;15.15;;;-0.10;99.90;;;;;;2106236;28;20103;-71
2023/01/18 00:25:03;;;;;;;18.10;14.18;;;-0.10;99.90;;;;;;2108991;28;20024;-71
2023/01/18 00:26:05;;;;;;;21.48;15.98;;;-0.10;99.90;;;;;;2108413;28;20081;-71
2023/01/18 00:27:08;;;;;;;23.13;15.18;;;-0.10;99.90;;;;;;2108588;28;20020;-71
2023/01/18 00:28:09;;;;;;;22.48;15.30;;;-0.10;99.90;;;;;;2116155;27;20029;-71
2023/01/18 00:29:09;;;;;;;21.40;16.00;;;-0.10;99.90;;;;;;2108012;28;20023;-71
2023/01/18 00:30:10;;;;;;;20.67;15.18;;;-0.10;99.90;;;;;;2107493;28;20027;-71
2023/01/18 00:31:17;;;;;;;21.20;15.68;;;-0.10;99.90;;;;;;2105568;28;20036;-71
2023/01/18 00:32:18;;;;;;;19.77;15.45;;;-0.10;99.90;;;;;;2106682;28;20012;-71
2023/01/18 00:33:18;;;;;;;20.33;16.52;;;-0.10;99.90;;;;;;2110219;28;20027;-71
2023/01/18 00:34:19;;;;;;;21.38;17.77;;;-0.10;99.90;;;;;;2107650;28;20490;-71
2023/01/18 00:35:21;;;;;;;20.42;16.92;;;-0.10;99.90;;;;;;2108737;28;20062;-71
2023/01/18 00:36:21;;;;;;;23.20;18.08;;;-0.10;99.90;;;;;;2107022;28;20020;-70
2023/01/18 00:37:27;;;;;;;22.05;16.73;;;-0.10;99.90;;;;;;2107686;28;20023;-71
2023/01/18 00:38:28;;;;;;;23.65;17.08;;;-0.20;99.90;;;;;;2108287;28;20093;-71
2023/01/18 00:39:29;;;;;;;22.25;16.48;;;-0.20;99.90;;;;;;2109089;28;20027;-71
2023/01/18 00:40:29;;;;;;;21.70;16.48;;;-0.20;99.90;;;;;;2109217;28;20019;-71
2023/01/18 00:41:30;;;;;;;22.25;15.38;;;-0.20;99.90;;;;;;2110944;28;20408;-71
2023/01/18 00:43:51;;;;;;;21.67;16.90;;;-0.20;99.90;;;;;;2110750;28;20119;-71
2023/01/18 00:44:51;;;;;;;19.95;16.23;;;-0.20;99.90;;;;;;2111663;28;20071;-71
2023/01/18 00:45:52;;;;;;;19.73;15.65;;;-0.20;99.90;;;;;;2111253;27;20042;-71
2023/01/18 00:46:54;;;;;;;22.75;16.55;;;-0.20;99.90;;;;;;2111685;28;20100;-71
2023/01/18 00:47:55;;;;;;;22.13;16.83;;;-0.20;99.90;;;;;;2109652;28;20031;-71
2023/01/18 00:48:57;;;;;;;23.83;18.25;;;-0.20;99.90;;;;;;2110261;28;20039;-71
2023/01/18 00:49:58;;;;;;;23.65;17.05;;;-0.20;99.90;;;;;;2109371;28;20126;-71
2023/01/18 00:50:59;;;;;;;22.45;17.60;;;-0.20;99.90;;;;;;2106601;28;20028;-71
2023/01/18 00:51:59;;;;;;;22.30;16.67;;;-0.20;99.90;;;;;;2111062;28;20162;-71
2023/01/18 00:52:59;;;;;;;20.02;15.57;;;-0.30;99.90;;;;;;2111706;28;20059;-71
2023/01/18 00:54:00;;;;;;;19.20;15.43;;;-0.30;99.90;;;;;;2109992;28;20073;-71
2023/01/18 00:55:04;;;;;;;22.73;18.40;;;-0.30;99.90;;;;;;2109717;28;20028;-71
2023/01/18 00:56:07;;;;;;;21.00;17.23;;;-0.30;99.90;;;;;;2111052;28;20028;-71
2023/01/18 00:57:08;;;;;;;23.95;17.58;;;-0.30;99.90;;;;;;2109859;28;20020;-71
2023/01/18 00:58:08;;;;;;;22.13;15.73;;;-0.30;99.90;;;;;;2109331;28;20023;-71
2023/01/18 00:59:09;;;;;;;20.58;15.85;;;-0.30;99.90;;;;;;2109725;28;20102;-71
2023/01/18 01:00:14;;;;;;;23.48;16.00;;;-0.30;99.90;;;;;;2109255;28;20024;-71
2023/01/18 01:01:14;;;;;;;20.52;15.85;;;-0.30;99.90;;;;;;2107255;28;20047;-71
2023/01/18 01:02:15;;;;;;;21.38;17.75;;;-0.30;99.90;;;;;;2108839;28;20020;-71
2023/01/18 01:03:16;;;;;;;21.65;16.70;;;-0.30;99.90;;;;;;2110241;28;20072;-71
2023/01/18 01:06:56;;;;;;;20.67;16.38;;;-0.30;99.90;;;;;;2108722;28;20043;-71
2023/01/18 01:07:56;;;;;;;18.63;15.32;;;-0.40;99.90;;;;;;2110016;28;20027;-71
2023/01/18 01:08:57;;;;;;;19.35;15.93;;;-0.40;99.90;;;;;;2110773;28;20031;-71
2023/01/18 01:09:57;;;;;;;27.08;15.82;;;-0.40;99.90;;;;;;2110591;28;20027;-71
2023/01/18 01:11:10;;;;;;;20.25;16.08;;;-0.30;99.90;;;;;;2110172;28;20051;-71
2023/01/18 01:26:46;;;;;;;18.65;13.98;;;-0.60;99.90;;;;;;2110085;28;20031;-71
2023/01/18 01:27:46;;;;;;;17.52;15.73;;;-0.50;99.90;;;;;;2109864;28;20024;-71
2023/01/18 01:28:51;;;;;;;16.48;13.90;;;-0.50;99.90;;;;;;2111012;28;20027;-71
2023/01/18 01:29:52;;;;;;;20.98;16.13;;;-0.60;99.90;;;;;;2109308;28;20508;-71
2023/01/18 01:30:56;;;;;;;19.95;15.40;;;-0.60;99.90;;;;;;2109483;28;20093;-71
2023/01/18 01:31:57;;;;;;;19.23;14.57;;;-0.50;99.90;;;;;;2116564;27;20035;-71
2023/01/18 01:32:58;;;;;;;19.33;15.45;;;-0.60;99.90;;;;;;2115534;27;20027;-71
2023/01/18 01:33:58;;;;;;;18.63;14.85;;;-0.60;99.90;;;;;;2108106;28;20483;-71
2023/01/18 01:34:59;;;;;;;20.65;15.00;;;-0.60;99.90;;;;;;2109807;28;20112;-71
2023/01/18 01:36:06;;;;;;;20.42;15.23;;;-0.50;99.90;;;;;;2109753;28;20020;-69
2023/01/18 01:37:07;;;;;;;17.80;14.77;;;-0.60;99.90;;;;;;2110005;28;20077;-70
2023/01/18 01:38:17;;;;;;;21.67;16.15;;;-0.50;99.90;;;;;;2108835;28;20032;-70
2023/01/18 01:39:20;;;;;;;18.60;15.52;;;-0.50;99.90;;;;;;2108752;28;20031;-69
2023/01/18 01:40:21;;;;;;;20.83;15.15;;;-0.60;99.90;;;;;;2102181;28;20143;-70
2023/01/18 01:41:32;;;;;;;19.05;16.25;;;-0.60;99.90;;;;;;2111049;28;20028;-70
2023/01/18 01:42:33;;;;;;;19.75;15.57;;;-0.60;99.90;;;;;;2108139;28;20024;-70
2023/01/18 01:43:45;;;;;;;19.67;15.23;;;-0.60;99.90;;;;;;2110194;28;20028;-70
2023/01/18 01:44:49;;;;;;;18.38;15.43;;;-0.60;99.90;;;;;;2109238;28;20036;-70
2023/01/18 01:45:50;;;;;;;24.50;16.85;;;-0.60;99.90;;;;;;2109877;28;20023;-70
2023/01/18 01:47:23;;;;;;;18.35;15.55;;;-0.60;99.90;;;;;;2109158;28;20043;-70
2023/01/18 01:48:24;;;;;;;20.83;14.70;;;-0.60;99.90;;;;;;2099731;28;20970;-70
2023/01/18 01:49:25;;;;;;;19.25;14.90;;;-0.70;99.90;;;;;;2108280;28;20399;-70
2023/01/18 01:50:32;;;;;;;20.20;15.88;;;-0.60;99.90;;;;;;2108922;28;20028;-72
2023/01/18 01:51:34;;;;;;;17.27;15.57;;;-0.70;99.90;;;;;;2107528;28;20016;-71
2023/01/18 01:52:38;;;;;;;18.05;14.70;;;-0.70;99.90;;;;;;2107660;28;20104;-71
2023/01/18 01:53:39;;;;;;;19.52;14.52;;;-0.70;99.90;;;;;;2108800;28;20031;-71
2023/01/18 01:54:53;;;;;;;21.30;17.95;;;-0.70;99.90;;;;;;2107120;28;21407;-71
2023/01/18 01:55:54;;;;;;;21.25;15.05;;;-0.70;99.90;;;;;;2109613;28;20574;-71
2023/01/18 01:57:06;;;;;;;21.33;16.77;;;-0.70;99.90;;;;;;2109142;28;20031;-71
2023/01/18 01:58:19;;;;;;;22.55;16.67;;;-0.70;99.90;;;;;;2108404;28;20032;-71
2023/01/18 01:59:19;;;;;;;22.45;17.08;;;-0.70;99.90;;;;;;2108282;28;20047;-71
2023/01/18 02:00:24;;;;;;;20.08;17.33;;;-0.70;99.90;;;;;;2107122;28;20019;-71
2023/01/18 02:01:27;;;;;;;20.45;17.58;;;-0.70;99.90;;;;;;2109703;28;20023;-71
2023/01/18 02:02:29;;;;;;;19.10;16.50;;;-0.70;99.90;;;;;;2109163;28;20027;-71
2023/01/18 02:03:30;;;;;;;18.33;16.17;;;-0.70;99.90;;;;;;2110619;28;20640;-71
2023/01/18 02:04:32;;;;;;;23.73;17.88;;;-0.70;99.90;;;;;;2108566;28;20377;-71
2023/01/18 02:05:39;;;;;;;24.60;18.65;;;-0.70;99.90;;;;;;2111036;28;20038;-71
2023/01/18 02:06:39;;;;;;;23.83;18.40;;;-0.70;99.90;;;;;;2109365;28;20031;-71
2023/01/18 02:07:40;;;;;;;20.63;15.85;;;-0.70;99.90;;;;;;2108140;28;20031;-71
2023/01/18 02:08:46;;;;;;;22.30;18.52;;;-0.70;99.90;;;;;;2108102;28;20036;-71
2023/01/18 02:09:47;;;;;;;19.45;16.10;;;-0.70;99.90;;;;;;2108208;28;20038;-72
2023/01/18 02:10:48;;;;;;;25.60;16.00;;;-0.70;99.90;;;;;;2107307;28;20461;-71
2023/01/18 02:11:53;;;;;;;20.95;16.92;;;-0.70;99.90;;;;;;2108751;28;20614;-71
2023/01/18 02:12:55;;;;;;;17.70;15.60;;;-0.70;99.90;;;;;;2107988;28;20039;-71
2023/01/18 02:14:01;;;;;;;20.50;16.98;;;-0.70;99.90;;;;;;2107514;28;20033;-71
2023/01/18 02:15:03;;;;;;;18.08;15.43;;;-0.70;99.90;;;;;;2108368;28;20039;-71
2023/01/18 02:16:06;;;;;;;21.33;15.75;;;-0.70;99.90;;;;;;2108692;28;20031;-71
2023/01/18 02:17:33;;;;;;;19.55;15.20;;;-0.80;99.90;;;;;;2108470;28;20027;-71
2023/01/18 02:18:52;;;;;;;19.35;14.93;;;-0.80;99.90;;;;;;2108785;28;20015;-71
2023/01/18 02:20:23;;;;;;;19.02;16.40;;;-0.80;99.90;;;;;;2108062;28;20028;-71
2023/01/18 02:21:39;;;;;;;20.40;16.13;;;-0.80;99.90;;;;;;2093080;28;20067;-71
2023/01/18 02:23:25;;;;;;;20.63;16.70;;;-0.80;99.90;;;;;;2108441;28;20024;-71
2023/01/18 02:24:59;;;;;;;19.25;17.00;;;-0.90;99.90;;;;;;2108869;28;21062;-71
2023/01/18 02:26:12;;;;;;;21.70;17.23;;;-0.90;99.90;;;;;;2107653;28;20456;-70
2023/01/18 02:27:42;;;;;;;20.00;16.70;;;-0.90;99.90;;;;;;2108629;28;20082;-70
2023/01/18 02:28:51;;;;;;;22.45;18.02;;;-0.90;99.90;;;;;;2108701;28;20032;-70
2023/01/18 02:30:05;;;;;;;22.25;18.00;;;-0.90;99.90;;;;;;2108234;28;20509;-70
2023/01/18 02:31:08;;;;;;;21.98;17.35;;;-0.90;99.90;;;;;;2109174;28;20039;-70
2023/01/18 02:32:42;;;;;;;20.55;16.83;;;-0.90;99.90;;;;;;2108523;28;20020;-70
2023/01/18 02:33:44;;;;;;;22.98;18.05;;;-0.90;99.90;;;;;;2109554;28;20012;-70
2023/01/18 02:34:54;;;;;;;20.35;18.13;;;-0.90;99.90;;;;;;2109133;28;20023;-70
2023/01/18 02:35:56;;;;;;;26.77;19.63;;;-0.90;99.90;;;;;;2109124;28;20069;-70
2023/01/18 02:37:25;;;;;;;24.83;20.33;;;-0.90;99.90;;;;;;2109908;28;20032;-70
2023/01/18 02:38:51;;;;;;;23.77;19.15;;;-0.90;99.90;;;;;;2103879;28;20118;-70
2023/01/18 02:40:12;;;;;;;25.48;19.75;;;-0.90;99.90;;;;;;2107525;28;20049;-70
2023/01/18 02:47:16;;;;;;;29.25;22.45;;;-1.00;99.90;;;;;;2108795;28;20027;-70
2023/01/18 02:48:20;;;;;;;25.02;19.88;;;-1.00;99.90;;;;;;2108268;28;20024;-70
2023/01/18 02:49:26;;;;;;;24.25;19.33;;;-1.00;99.90;;;;;;2107683;28;20024;-70
2023/01/18 02:50:27;;;;;;;27.20;21.05;;;-1.00;99.90;;;;;;2108238;28;20985;-70
2023/01/18 02:51:27;;;;;;;25.95;19.85;;;-1.00;99.90;;;;;;2107758;28;20023;-70
2023/01/18 02:52:46;;;;;;;26.83;20.20;;;-1.00;99.90;;;;;;2107662;28;20019;-70
2023/01/18 02:53:47;;;;;;;28.67;21.15;;;-1.00;99.90;;;;;;2108486;27;20116;-70
2023/01/18 02:54:47;;;;;;;24.67;19.58;;;-1.00;99.90;;;;;;2107493;28;20070;-70
2023/01/18 02:56:12;;;;;;;25.15;19.75;;;-1.00;99.90;;;;;;2107521;28;20038;-70
2023/01/18 02:57:15;;;;;;;26.00;21.90;;;-1.00;99.90;;;;;;2109135;28;20027;-70
2023/01/18 02:58:16;;;;;;;30.48;22.25;;;-1.00;99.90;;;;;;2110027;27;20390;-70
2023/01/18 02:59:35;;;;;;;30.58;21.25;;;-1.00;99.90;;;;;;2106951;28;20042;-70
2023/01/18 03:00:43;;;;;;;27.45;20.27;;;-1.00;99.90;;;;;;2110585;28;20070;-70
2023/01/18 03:01:56;;;;;;;23.40;19.55;;;-1.00;99.90;;;;;;2110461;28;20138;-70
2023/01/18 03:02:58;;;;;;;28.55;19.48;;;-1.10;99.90;;;;;;2106407;28;20028;-70
2023/01/18 03:04:04;;;;;;;23.33;19.10;;;-1.00;99.90;;;;;;2109360;28;20379;-70
2023/01/18 03:05:09;;;;;;;24.25;19.83;;;-1.10;99.90;;;;;;2109396;28;20455;-70
2023/01/18 03:06:09;;;;;;;25.45;20.77;;;-1.10;99.90;;;;;;2106799;28;20038;-70
2023/01/18 03:07:15;;;;;;;25.08;21.17;;;-1.10;99.90;;;;;;2109220;28;20510;-70
2023/01/18 03:08:23;;;;;;;25.50;19.75;;;-1.00;99.90;;;;;;2109237;28;20034;-70
2023/01/18 03:09:25;;;;;;;29.23;21.98;;;-1.00;99.90;;;;;;2108231;28;20031;-70
2023/01/18 03:10:30;;;;;;;23.27;20.33;;;-1.10;99.90;;;;;;2106524;28;20038;-70
2023/01/18 03:11:49;;;;;;;28.02;22.85;;;-1.00;99.90;;;;;;2109142;28;20111;-70
2023/01/18 03:13:08;;;;;;;27.85;20.35;;;-1.00;99.90;;;;;;2108104;28;20479;-70
2023/01/18 03:14:20;;;;;;;26.60;19.88;;;-1.10;99.90;;;;;;2116208;27;20098;-70
2023/01/18 03:15:35;;;;;;;28.30;20.95;;;-1.10;99.90;;;;;;2115766;27;20119;-70
2023/01/18 03:17:05;;;;;;;25.08;19.77;;;-1.10;99.90;;;;;;2109826;28;20487;-70
2023/01/18 03:18:16;;;;;;;27.58;21.42;;;-1.10;99.90;;;;;;2110149;28;20127;-70
2023/01/18 03:20:45;;;;;;;25.02;20.05;;;-1.20;99.90;;;;;;2109487;28;20035;-70
2023/01/18 03:21:50;;;;;;;27.02;20.75;;;-1.20;99.90;;;;;;2107332;28;20031;-70
2023/01/18 03:24:15;;;;;;;26.13;19.63;;;-1.20;99.90;;;;;;2107188;28;20039;-70
2023/01/18 03:25:19;;;;;;;24.60;20.42;;;-1.20;99.90;;;;;;2109692;28;20383;-70
2023/01/18 03:26:21;;;;;;;24.30;19.65;;;-1.20;99.90;;;;;;2110982;28;20025;-70
2023/01/18 03:34:42;;;;;;;25.15;20.00;;;-1.20;99.90;;;;;;2108476;28;20023;-70
2023/01/18 03:35:42;;;;;;;23.08;19.25;;;-1.20;99.90;;;;;;2107421;28;20379;-70
2023/01/18 03:36:46;;;;;;;28.70;21.48;;;-1.30;99.90;;;;;;2108105;28;20020;-70
2023/01/18 03:37:48;;;;;;;27.95;20.92;;;-1.30;99.90;;;;;;2109399;28;20630;-70
2023/01/18 03:38:54;;;;;;;23.75;19.92;;;-1.20;99.90;;;;;;2109474;28;20034;-70
2023/01/18 03:40:05;;;;;;;26.08;21.42;;;-1.20;99.90;;;;;;2108469;28;20069;-70
2023/01/18 03:41:07;;;;;;;25.35;20.80;;;-1.20;99.90;;;;;;2106272;28;20106;-70
2023/01/18 03:42:20;;;;;;;25.48;21.35;;;-1.20;99.90;;;;;;2107075;28;20672;-70
2023/01/18 03:43:23;;;;;;;26.95;22.23;;;-1.20;99.90;;;;;;2107665;28;20031;-70
2023/01/18 03:44:50;;;;;;;26.95;22.05;;;-1.20;99.90;;;;;;2107305;28;20051;-70
2023/01/18 03:45:54;;;;;;;26.13;21.60;;;-1.20;99.90;;;;;;2107061;28;20020;-70
2023/01/18 03:46:55;;;;;;;23.88;20.60;;;-1.30;99.90;;;;;;2107402;28;20020;-70
2023/01/18 03:47:56;;;;;;;24.20;20.08;;;-1.20;99.90;;;;;;2107296;28;20021;-70
2023/01/18 03:48:57;;;;;;;23.65;20.70;;;-1.30;99.90;;;;;;2108769;28;21297;-70
2023/01/18 03:49:58;;;;;;;27.63;21.55;;;-1.20;99.90;;;;;;2107244;28;20028;-70
2023/01/18 03:51:17;;;;;;;26.35;20.88;;;-1.30;99.90;;;;;;2105968;28;20783;-70
2023/01/18 03:52:39;;;;;;;24.45;19.48;;;-1.20;99.90;;;;;;2107874;28;20102;-70
2023/01/18 03:53:53;;;;;;;26.40;20.92;;;-1.30;99.90;;;;;;2108870;28;20032;-70
2023/01/18 03:55:04;;;;;;;25.33;19.85;;;-1.30;99.90;;;;;;2107163;28;20119;-70
2023/01/18 03:56:14;;;;;;;24.80;19.50;;;-1.30;99.90;;;;;;2109183;28;20217;-70
2023/01/18 03:57:41;;;;;;;23.05;20.45;;;-1.30;99.90;;;;;;2109465;28;20032;-70
2023/01/18 03:58:43;;;;;;;23.90;20.80;;;-1.30;99.90;;;;;;2107711;28;20031;-70
2023/01/18 03:59:45;;;;;;;23.40;19.92;;;-1.30;99.90;;;;;;2106450;28;20848;-70
2023/01/18 04:00:46;;;;;;;24.13;20.60;;;-1.30;99.90;;;;;;2107143;28;20036;-70
2023/01/18 04:01:47;;;;;;;28.92;22.98;;;-1.30;99.90;;;;;;2107286;28;20030;-70
2023/01/18 04:02:48;;;;;;;24.85;20.95;;;-1.30;99.90;;;;;;2109989;28;20020;-70
2023/01/18 04:03:49;;;;;;;23.95;20.08;;;-1.30;99.90;;;;;;2107301;28;20080;-70
2023/01/18 04:04:56;;;;;;;22.45;19.40;;;-1.30;99.90;;;;;;2106810;28;20540;-70
2023/01/18 04:05:57;;;;;;;22.40;19.85;;;-1.30;99.90;;;;;;2108134;28;20027;-70
2023/01/18 04:06:58;;;;;;;22.92;20.42;;;-1.30;99.90;;;;;;2109846;28;20031;-70
2023/01/18 04:07:59;;;;;;;24.92;20.65;;;-1.20;99.90;;;;;;2109547;28;20533;-70
2023/01/18 04:08:59;;;;;;;25.95;21.70;;;-1.20;99.90;;;;;;2109275;28;20027;-70
2023/01/18 04:10:00;;;;;;;28.90;22.67;;;-1.20;99.90;;;;;;2108105;28;20545;-70
2023/01/18 04:11:01;;;;;;;24.65;21.95;;;-1.20;99.90;;;;;;2107225;28;20020;-70
2023/01/18 04:12:01;;;;;;;28.67;22.48;;;-1.20;99.90;;;;;;2108273;28;20067;-70
2023/01/18 04:13:02;;;;;;;23.55;20.17;;;-1.20;99.90;;;;;;2110258;28;20031;-70
2023/01/18 04:14:02;;;;;;;24.40;21.52;;;-1.20;99.90;;;;;;2109908;28;20024;-70
2023/01/18 04:15:03;;;;;;;24.73;21.88;;;-1.20;99.90;;;;;;2110104;28;20027;-70
2023/01/18 04:16:04;;;;;;;27.05;20.65;;;-1.20;99.90;;;;;;2110366;28;20110;-70
2023/01/18 04:17:04;;;;;;;24.33;20.98;;;-1.20;99.90;;;;;;2109281;28;20027;-70
2023/01/18 04:18:05;;;;;;;22.88;20.45;;;-1.30;99.90;;;;;;2110494;28;20028;-70
2023/01/18 04:19:07;;;;;;;23.65;20.10;;;-1.20;99.90;;;;;;2109966;28;20043;-70
2023/01/18 04:20:08;;;;;;;23.08;20.48;;;-1.30;99.90;;;;;;2111182;28;20024;-70
2023/01/18 04:21:09;;;;;;;25.15;20.05;;;-1.20;99.90;;;;;;2110173;28;20051;-70
2023/01/18 04:22:10;;;;;;;21.75;19.20;;;-1.20;99.90;;;;;;2109817;28;20031;-70
2023/01/18 04:23:10;;;;;;;21.10;19.00;;;-1.20;99.90;;;;;;2109101;28;20027;-70
2023/01/18 04:24:11;;;;;;;25.17;19.45;;;-1.20;99.90;;;;;;2109412;28;20039;-70
2023/01/18 04:25:12;;;;;;;24.60;20.92;;;-1.20;99.90;;;;;;2110125;27;20047;-70
2023/01/18 04:26:15;;;;;;;27.48;20.58;;;-1.20;99.90;;;;;;2111521;28;20118;-70
2023/01/18 04:27:16;;;;;;;25.13;19.70;;;-1.30;99.90;;;;;;2111506;28;20033;-70
2023/01/18 04:28:24;;;;;;;24.77;21.45;;;-1.20;99.90;;;;;;2111447;28;20019;-70
2023/01/18 04:29:24;;;;;;;22.90;20.27;;;-1.30;99.90;;;;;;2110420;28;20023;-70
2023/01/18 04:30:26;;;;;;;23.25;20.10;;;-1.30;99.90;;;;;;2108233;28;20040;-70
2023/01/18 04:31:27;;;;;;;23.27;20.23;;;-1.30;99.90;;;;;;2111858;28;20046;-70
2023/01/18 04:32:27;;;;;;;22.88;19.02;;;-1.30;99.90;;;;;;2110334;28;20020;-70
2023/01/18 04:33:28;;;;;;;24.20;20.33;;;-1.30;99.90;;;;;;2108544;28;20141;-70
2023/01/18 04:34:28;;;;;;;23.05;20.05;;;-1.30;99.90;;;;;;2109687;28;20027;-70
2023/01/18 04:35:29;;;;;;;25.52;21.67;;;-1.30;99.90;;;;;;2109126;28;20020;-70
2023/01/18 04:36:30;;;;;;;24.08;19.75;;;-1.30;99.90;;;;;;2110599;28;20598;-70
2023/01/18 04:37:32;;;;;;;23.90;20.13;;;-1.30;99.90;;;;;;2107298;28;20020;-70
2023/01/18 04:38:33;;;;;;;22.05;19.70;;;-1.30;99.90;;;;;;2109337;28;20100;-70
2023/01/18 04:39:34;;;;;;;22.35;19.35;;;-1.30;99.90;;;;;;2108484;28;20028;-70
2023/01/18 04:40:34;;;;;;;27.00;20.63;;;-1.30;99.90;;;;;;2110104;27;20023;-70
2023/01/18 04:41:35;;;;;;;23.10;19.80;;;-1.30;99.90;;;;;;2109552;28;20055;-70
2023/01/18 04:42:35;;;;;;;22.42;19.30;;;-1.30;99.90;;;;;;2107836;28;20027;-70
2023/01/18 04:43:36;;;;;;;25.33;21.27;;;-1.30;99.90;;;;;;2111027;28;20031;-70
2023/01/18 04:44:36;;;;;;;22.17;19.08;;;-1.30;99.90;;;;;;2110916;28;20024;-70
2023/01/18 04:45:37;;;;;;;25.67;20.52;;;-1.30;99.90;;;;;;2109095;28;20016;-69
2023/01/18 04:46:38;;;;;;;22.65;19.67;;;-1.30;99.90;;;;;;2111433;28;20054;-70
2023/01/18 04:47:38;;;;;;;25.17;20.95;;;-1.30;99.90;;;;;;2113300;28;20110;-70
2023/01/18 04:48:39;;;;;;;24.15;20.45;;;-1.30;99.90;;;;;;2110009;28;20030;-70
2023/01/18 04:49:40;;;;;;;24.45;19.65;;;-1.30;99.90;;;;;;2108296;28;20039;-70
2023/01/18 04:50:41;;;;;;;21.55;19.23;;;-1.30;99.90;;;;;;2109319;28;20089;-70
2023/01/18 04:51:43;;;;;;;23.50;19.75;;;-1.30;99.90;;;;;;2110538;28;20016;-70
2023/01/18 04:52:43;;;;;;;24.17;20.52;;;-1.30;99.90;;;;;;2110258;27;20027;-70
2023/01/18 04:53:44;;;;;;;23.90;19.65;;;-1.30;99.90;;;;;;2109093;28;20024;-70
2023/01/18 04:54:45;;;;;;;23.67;19.73;;;-1.30;99.90;;;;;;2109357;28;20085;-70
2023/01/18 04:55:45;;;;;;;23.48;19.00;;;-1.30;99.90;;;;;;2108768;28;20398;-70
2023/01/18 04:56:46;;;;;;;24.45;20.70;;;-1.30;99.90;;;;;;2107416;28;20490;-70
2023/01/18 04:57:52;;;;;;;23.05;20.40;;;-1.40;99.90;;;;;;2107866;28;20038;-70
2023/01/18 04:58:53;;;;;;;29.83;21.95;;;-1.40;99.90;;;;;;2110095;28;20024;-70
2023/01/18 04:59:54;;;;;;;22.20;19.85;;;-1.40;99.90;;;;;;2107926;28;20028;-70
2023/01/18 05:00:54;;;;;;;25.13;19.55;;;-1.40;99.90;;;;;;2109694;28;20391;-70
2023/01/18 05:01:55;;;;;;;23.25;19.92;;;-1.40;99.90;;;;;;2110102;28;20035;-70
2023/01/18 05:02:55;;;;;;;20.80;18.65;;;-1.40;99.90;;;;;;2110680;28;20035;-70
2023/01/18 05:03:56;;;;;;;24.67;19.75;;;-1.40;99.90;;;;;;2109345;28;20035;-70
2023/01/18 05:04:58;;;;;;;22.42;19.92;;;-1.40;99.90;;;;;;2108770;28;20031;-70
2023/01/18 05:05:59;;;;;;;22.10;19.00;;;-1.40;99.90;;;;;;2108908;28;20051;-70
2023/01/18 05:07:01;;;;;;;23.58;18.58;;;-1.40;99.90;;;;;;2107856;28;20089;-70
2023/01/18 05:08:01;;;;;;;30.40;20.92;;;-1.40;99.90;;;;;;2111423;28;20394;-70
2023/01/18 05:09:02;;;;;;;26.75;21.20;;;-1.40;99.90;;;;;;2110738;28;20062;-70
2023/01/18 05:10:03;;;;;;;24.33;18.50;;;-1.40;99.90;;;;;;2109625;28;20471;-70
2023/01/18 05:11:05;;;;;;;21.52;19.23;;;-1.40;99.90;;;;;;2108351;28;20030;-70
2023/01/18 05:12:06;;;;;;;27.60;21.90;;;-1.40;99.90;;;;;;2108267;28;20016;-70
2023/01/18 05:13:06;;;;;;;24.83;19.50;;;-1.40;99.90;;;;;;2108544;28;20585;-70
2023/01/18 05:14:07;;;;;;;24.52;19.48;;;-1.40;99.90;;;;;;2108726;28;20016;-70
2023/01/18 05:15:08;;;;;;;26.38;21.40;;;-1.40;99.90;;;;;;2108040;28;20116;-70
2023/01/18 05:16:13;;;;;;;22.60;19.52;;;-1.40;99.90;;;;;;2110620;27;20672;-70
2023/01/18 05:17:14;;;;;;;23.38;19.13;;;-1.40;99.90;;;;;;2108758;28;20098;-70
2023/01/18 05:18:14;;;;;;;22.20;19.58;;;-1.50;99.90;;;;;;2109707;28;20030;-70
2023/01/18 05:19:15;;;;;;;23.58;19.95;;;-1.40;99.90;;;;;;2110731;28;20110;-70
2023/01/18 05:20:15;;;;;;;24.88;20.88;;;-1.50;99.90;;;;;;2110418;28;20047;-70
2023/01/18 05:21:16;;;;;;;22.55;19.67;;;-1.40;99.90;;;;;;2112314;28;20023;-70
2023/01/18 05:22:16;;;;;;;22.30;19.02;;;-1.50;99.90;;;;;;2109214;28;20039;-70
2023/01/18 05:23:17;;;;;;;23.27;19.55;;;-1.50;99.90;;;;;;2107517;28;20050;-70
2023/01/18 05:24:18;;;;;;;26.42;20.35;;;-1.50;99.90;;;;;;2109936;28;20567;-70
2023/01/18 05:25:19;;;;;;;24.50;19.98;;;-1.40;99.90;;;;;;2111331;28;20035;-70
2023/01/18 05:26:22;;;;;;;24.85;20.15;;;-1.40;99.90;;;;;;2109491;28;20458;-70
2023/01/18 05:27:22;;;;;;;25.15;20.42;;;-1.40;99.90;;;;;;2109537;28;20067;-70
2023/01/18 05:28:25;;;;;;;27.83;20.38;;;-1.40;99.90;;;;;;2107774;28;20031;-70
2023/01/18 05:29:25;;;;;;;21.17;18.90;;;-1.50;99.90;;;;;;2108356;28;20062;-70
2023/01/18 05:30:26;;;;;;;21.65;19.15;;;-1.40;99.90;;;;;;2110199;28;20050;-70
2023/01/18 05:31:26;;;;;;;25.27;21.20;;;-1.40;99.90;;;;;;2108712;28;20508;-70
2023/01/18 05:32:27;;;;;;;22.75;18.98;;;-1.50;99.90;;;;;;2109584;28;20148;-70
2023/01/18 05:33:28;;;;;;;24.30;20.90;;;-1.50;99.90;;;;;;2109575;28;20024;-70
2023/01/18 05:34:28;;;;;;;22.70;19.38;;;-1.40;99.90;;;;;;2109161;28;20535;-70
2023/01/18 05:35:30;;;;;;;21.20;18.27;;;-1.50;99.90;;;;;;2106631;28;20020;-70
2023/01/18 05:36:31;;;;;;;27.80;20.42;;;-1.50;99.90;;;;;;2109305;28;20032;-70
2023/01/18 05:37:31;;;;;;;24.85;20.27;;;-1.50;99.90;;;;;;2110071;28;20474;-70
2023/01/18 05:38:32;;;;;;;21.65;19.42;;;-1.50;99.90;;;;;;2110419;28;20024;-70
2023/01/18 05:39:32;;;;;;;26.05;19.40;;;-1.50;99.90;;;;;;2110955;28;20031;-70
2023/01/18 05:40:33;;;;;;;24.20;20.20;;;-1.50;99.90;;;;;;2109766;28;20028;-70
2023/01/18 05:41:33;;;;;;;24.83;19.67;;;-1.50;99.90;;;;;;2108638;28;20027;-69
2023/01/18 05:42:34;;;;;;;23.38;19.55;;;-1.50;99.90;;;;;;2110669;28;20466;-70
2023/01/18 05:43:35;;;;;;;23.90;19.50;;;-1.50;99.90;;;;;;2109308;28;20024;-70
2023/01/18 05:44:35;;;;;;;24.23;20.25;;;-1.50;99.90;;;;;;2110418;28;20654;-70
2023/01/18 05:45:36;;;;;;;26.02;21.30;;;-1.50;99.90;;;;;;2107646;27;20024;-70
2023/01/18 05:46:36;;;;;;;25.15;20.55;;;-1.50;99.90;;;;;;2111070;28;20032;-70
2023/01/18 05:47:37;;;;;;;26.20;21.73;;;-1.60;99.90;;;;;;2110789;28;20077;-70
2023/01/18 05:48:37;;;;;;;24.25;20.63;;;-1.50;99.90;;;;;;2108776;28;20110;-70
2023/01/18 05:49:38;;;;;;;22.70;19.63;;;-1.50;99.90;;;;;;2107818;28;20043;-70
2023/01/18 05:50:39;;;;;;;27.15;21.38;;;-1.50;99.90;;;;;;2107513;28;20142;-70
2023/01/18 05:51:40;;;;;;;24.30;19.45;;;-1.50;99.90;;;;;;2108900;28;20487;-70
2023/01/18 05:52:41;;;;;;;26.08;22.02;;;-1.50;99.90;;;;;;2109488;28;20352;-70
2023/01/18 05:53:42;;;;;;;24.38;21.40;;;-1.50;99.90;;;;;;2109921;28;20099;-70
2023/01/18 05:54:42;;;;;;;26.40;20.88;;;-1.60;99.90;;;;;;2107690;28;20039;-70
2023/01/18 05:55:43;;;;;;;29.35;21.90;;;-1.60;99.90;;;;;;2111618;28;20024;-70
2023/01/18 05:56:44;;;;;;;23.48;20.65;;;-1.50;99.90;;;;;;2107999;28;20020;-70
2023/01/18 05:57:44;;;;;;;26.02;19.52;;;-1.60;99.90;;;;;;2109320;28;20028;-70
2023/01/18 05:58:45;;;;;;;25.65;20.38;;;-1.50;99.90;;;;;;2110047;28;20475;-70
2023/01/18 05:59:45;;;;;;;24.90;20.67;;;-1.60;99.90;;;;;;2108433;28;20447;-70